Time;durP1;ratioP1;P1;durP2;ratioP2;P2;SDS_P1;SDS_P2;PMS_P1;PMS_P2;Temp;Humidity;BMP_temperature;BMP_pressure;BME280_temperature;BME280_humidity;BME280_pressure;Samples;Min_cycle;Max_cycle;Signal;HPM_P1;HPM_P2
2024/03/16 00:01:45;;;;;;;1.10;1.00;;;;;;;;;;5119619;27;20043;-84
2024/03/16 00:04:32;;;;;;;2.90;0.80;;;;;;;;;;5100575;27;20088;-84
2024/03/16 00:07:17;;;;;;;4.03;1.20;;;;;;;;;;5112273;27;20023;-85
2024/03/16 00:10:02;;;;;;;3.05;0.90;;;;;;;;;;5116474;27;20137;-85
2024/03/16 00:12:48;;;;;;;2.70;0.85;;;;;;;;;;5112223;27;20035;-85
2024/03/16 00:15:33;;;;;;;6.63;1.52;;;;;;;;;;5110528;27;20026;-85
2024/03/16 00:18:18;;;;;;;1.83;1.23;;;;;;;;;;5111907;27;20028;-86
2024/03/16 00:21:04;;;;;;;3.70;1.33;;;;;;;;;;5115855;27;20031;-86
2024/03/16 00:23:49;;;;;;;1.08;0.95;;;;;;;;;;5108996;27;21052;-86
2024/03/16 00:26:37;;;;;;;2.42;0.90;;;;;;;;;;5113765;27;20479;-86
2024/03/16 00:29:23;;;;;;;1.63;0.85;;;;;;;;;;5113020;27;20385;-86
2024/03/16 00:32:08;;;;;;;0.60;0.50;;;;;;;;;;5111780;27;20016;-86
2024/03/16 00:34:55;;;;;;;1.98;0.80;;;;;;;;;;5108488;28;20536;-86
2024/03/16 00:37:40;;;;;;;3.50;0.80;;;;;;;;;;5114053;27;20031;-86
2024/03/16 00:40:25;;;;;;;0.90;0.70;;;;;;;;;;5109084;27;20027;-85
2024/03/16 00:43:10;;;;;;;1.45;0.80;;;;;;;;;;5114756;27;20508;-85
2024/03/16 00:45:56;;;;;;;0.73;0.70;;;;;;;;;;5113479;27;20019;-85
2024/03/16 00:48:41;;;;;;;1.42;0.70;;;;;;;;;;5114883;27;20027;-85
2024/03/16 00:51:29;;;;;;;0.82;0.80;;;;;;;;;;5107856;27;20063;-86
2024/03/16 00:54:15;;;;;;;2.10;0.70;;;;;;;;;;5109263;28;20116;-87
2024/03/16 00:57:00;;;;;;;1.65;1.00;;;;;;;;;;5108238;28;20084;-86
2024/03/16 00:59:45;;;;;;;2.10;0.70;;;;;;;;;;5111180;28;20051;-86
2024/03/16 01:02:31;;;;;;;1.27;0.80;;;;;;;;;;5111800;28;20027;-85
2024/03/16 01:05:16;;;;;;;1.10;0.85;;;;;;;;;;5107682;28;20418;-86
2024/03/16 01:08:01;;;;;;;2.35;1.35;;;;;;;;;;5113093;28;20018;-86
2024/03/16 01:10:51;;;;;;;2.72;1.45;;;;;;;;;;5112142;28;20028;-86
2024/03/16 01:13:38;;;;;;;1.88;1.00;;;;;;;;;;5109243;28;20038;-86
2024/03/16 01:16:24;;;;;;;1.48;0.85;;;;;;;;;;5112076;28;20036;-85
2024/03/16 01:19:09;;;;;;;1.33;1.00;;;;;;;;;;5116958;28;20038;-86
2024/03/16 01:21:54;;;;;;;4.30;1.27;;;;;;;;;;5113383;28;20036;-86
2024/03/16 01:24:39;;;;;;;3.78;1.25;;;;;;;;;;5115715;28;20036;-86
2024/03/16 01:27:24;;;;;;;1.38;1.10;;;;;;;;;;5110653;28;20070;-85
2024/03/16 01:30:10;;;;;;;1.08;0.77;;;;;;;;;;5111667;28;20043;-84
2024/03/16 01:32:55;;;;;;;3.63;0.93;;;;;;;;;;5112978;28;20611;-84
2024/03/16 01:35:41;;;;;;;1.33;0.80;;;;;;;;;;5112007;28;20023;-86
2024/03/16 01:38:26;;;;;;;0.70;0.70;;;;;;;;;;5112944;28;20399;-85
2024/03/16 01:41:11;;;;;;;2.00;1.15;;;;;;;;;;5108836;28;20027;-85
2024/03/16 01:44:08;;;;;;;3.80;0.88;;;;;;;;;;5112280;28;20047;-85
2024/03/16 01:46:53;;;;;;;3.13;0.82;;;;;;;;;;5112428;28;20035;-85
2024/03/16 01:49:39;;;;;;;1.50;0.98;;;;;;;;;;5114660;28;20027;-85
2024/03/16 01:52:25;;;;;;;0.60;0.60;;;;;;;;;;5114177;28;20031;-85
2024/03/16 01:55:10;;;;;;;0.60;0.57;;;;;;;;;;5113319;28;20407;-85
2024/03/16 01:57:55;;;;;;;1.30;0.65;;;;;;;;;;5110645;28;20566;-85
2024/03/16 02:00:45;;;;;;;0.68;0.68;;;;;;;;;;5112730;28;20062;-85
2024/03/16 02:03:31;;;;;;;0.95;0.68;;;;;;;;;;5113822;27;20023;-85
2024/03/16 02:06:19;;;;;;;4.32;1.95;;;;;;;;;;5116528;27;20030;-87
2024/03/16 02:09:06;;;;;;;1.92;0.85;;;;;;;;;;5117161;27;20027;-86
2024/03/16 02:11:51;;;;;;;0.73;0.70;;;;;;;;;;5119947;27;20027;-86
2024/03/16 02:14:36;;;;;;;3.13;0.70;;;;;;;;;;5114478;27;20062;-85
2024/03/16 02:17:22;;;;;;;1.23;0.60;;;;;;;;;;5122075;27;20087;-85
2024/03/16 02:20:14;;;;;;;6.00;1.13;;;;;;;;;;5120601;27;20381;-85
2024/03/16 02:23:00;;;;;;;1.40;0.70;;;;;;;;;;5111399;27;20083;-84
2024/03/16 02:25:45;;;;;;;2.33;0.70;;;;;;;;;;5116056;27;20035;-85
2024/03/16 02:28:30;;;;;;;2.42;0.98;;;;;;;;;;5115801;27;20028;-86
2024/03/16 02:31:16;;;;;;;0.98;0.93;;;;;;;;;;5119824;27;20107;-85
2024/03/16 02:34:02;;;;;;;2.00;0.80;;;;;;;;;;5116201;27;20027;-85
2024/03/16 02:36:47;;;;;;;1.60;0.75;;;;;;;;;;5117643;27;20043;-85
2024/03/16 02:39:33;;;;;;;3.50;1.42;;;;;;;;;;5114485;27;20027;-84
2024/03/16 02:42:19;;;;;;;1.40;0.75;;;;;;;;;;5115087;27;20039;-85
2024/03/16 02:45:05;;;;;;;1.15;0.70;;;;;;;;;;5118274;27;20058;-84
2024/03/16 02:47:51;;;;;;;1.25;0.80;;;;;;;;;;5121675;27;20087;-84
2024/03/16 02:50:36;;;;;;;1.13;0.60;;;;;;;;;;5115403;27;20068;-85
2024/03/16 02:53:21;;;;;;;0.70;0.70;;;;;;;;;;5116232;27;20122;-85
2024/03/16 02:56:06;;;;;;;2.40;0.80;;;;;;;;;;5115924;27;20030;-86
2024/03/16 02:58:51;;;;;;;0.60;0.60;;;;;;;;;;5116540;27;20035;-86
2024/03/16 03:01:37;;;;;;;0.73;0.73;;;;;;;;;;5117954;27;20031;-85
2024/03/16 03:04:23;;;;;;;1.73;0.77;;;;;;;;;;5121644;27;20019;-85
2024/03/16 03:07:08;;;;;;;1.27;0.82;;;;;;;;;;5118571;27;20022;-86
2024/03/16 03:09:53;;;;;;;2.15;1.23;;;;;;;;;;5112837;27;20015;-85
2024/03/16 03:12:38;;;;;;;1.30;0.82;;;;;;;;;;5119959;27;20114;-86
2024/03/16 03:15:24;;;;;;;1.48;0.80;;;;;;;;;;5113457;27;20106;-86
2024/03/16 03:18:10;;;;;;;2.80;0.80;;;;;;;;;;5115858;27;20031;-86
2024/03/16 03:20:55;;;;;;;1.30;0.70;;;;;;;;;;5117932;27;20015;-85
2024/03/16 03:23:40;;;;;;;3.55;0.90;;;;;;;;;;5116989;27;20023;-86
2024/03/16 03:26:29;;;;;;;2.45;1.23;;;;;;;;;;5121164;27;20072;-85
2024/03/16 03:29:14;;;;;;;3.03;0.88;;;;;;;;;;5119329;27;20023;-85
2024/03/16 03:31:59;;;;;;;0.68;0.60;;;;;;;;;;5113057;27;20032;-86
2024/03/16 03:34:44;;;;;;;2.53;0.98;;;;;;;;;;5117151;27;20023;-85
2024/03/16 03:37:30;;;;;;;1.00;0.70;;;;;;;;;;5115729;27;20458;-86
2024/03/16 03:40:15;;;;;;;1.40;0.57;;;;;;;;;;5122300;27;20750;-85
2024/03/16 03:43:00;;;;;;;1.02;0.70;;;;;;;;;;5117654;27;20752;-86
2024/03/16 03:48:41;;;;;;;2.40;1.13;;;;;;;;;;5117649;27;20088;-85
2024/03/16 03:51:26;;;;;;;2.53;0.80;;;;;;;;;;5119777;27;20023;-85
2024/03/16 03:54:11;;;;;;;0.93;0.70;;;;;;;;;;5141033;27;20019;-85
2024/03/16 03:56:56;;;;;;;2.08;0.85;;;;;;;;;;5145354;27;20019;-85
2024/03/16 03:59:40;;;;;;;2.15;0.75;;;;;;;;;;5144242;27;20030;-85
2024/03/16 04:02:24;;;;;;;0.60;0.60;;;;;;;;;;5139842;27;20045;-84
2024/03/16 04:05:11;;;;;;;1.55;0.82;;;;;;;;;;5136485;27;20027;-85
2024/03/16 04:07:58;;;;;;;1.02;0.70;;;;;;;;;;5147282;27;20047;-85
2024/03/16 04:10:43;;;;;;;1.60;0.85;;;;;;;;;;5120376;27;20028;-85
2024/03/16 04:13:28;;;;;;;1.50;0.85;;;;;;;;;;5112540;27;20363;-85
2024/03/16 04:16:14;;;;;;;1.92;0.82;;;;;;;;;;5119178;27;20390;-85
2024/03/16 04:18:59;;;;;;;4.65;0.90;;;;;;;;;;5114101;27;20019;-85
2024/03/16 04:21:49;;;;;;;1.60;1.02;;;;;;;;;;5105487;27;20038;-85
2024/03/16 04:24:34;;;;;;;0.80;0.70;;;;;;;;;;5112684;27;20050;-85
2024/03/16 04:27:20;;;;;;;4.38;1.30;;;;;;;;;;5110798;27;20100;-84
2024/03/16 04:30:08;;;;;;;3.58;1.63;;;;;;;;;;5113853;27;20028;-84
2024/03/16 04:32:53;;;;;;;3.70;1.10;;;;;;;;;;5113688;27;20088;-84
2024/03/16 04:35:38;;;;;;;3.10;1.75;;;;;;;;;;5111776;27;20020;-85
2024/03/16 04:38:24;;;;;;;4.30;1.35;;;;;;;;;;5110566;27;20374;-85
2024/03/16 04:41:09;;;;;;;1.67;1.00;;;;;;;;;;5107084;27;20179;-85
2024/03/16 04:43:54;;;;;;;2.47;1.00;;;;;;;;;;5115374;27;20050;-85
2024/03/16 04:46:39;;;;;;;2.55;1.15;;;;;;;;;;5102000;27;20047;-86
2024/03/16 04:49:25;;;;;;;2.78;1.05;;;;;;;;;;5116558;27;20374;-85
2024/03/16 04:52:10;;;;;;;2.78;1.20;;;;;;;;;;5111523;27;20026;-85
2024/03/16 04:54:55;;;;;;;1.90;1.30;;;;;;;;;;5110829;27;20016;-86
2024/03/16 04:57:41;;;;;;;2.63;1.30;;;;;;;;;;5112057;28;20016;-85
2024/03/16 05:00:26;;;;;;;5.70;1.20;;;;;;;;;;5110012;28;20027;-85
2024/03/16 05:03:12;;;;;;;0.90;0.80;;;;;;;;;;5108957;28;20038;-85
2024/03/16 05:05:58;;;;;;;5.18;1.10;;;;;;;;;;5112975;28;20027;-85
2024/03/16 05:08:44;;;;;;;2.83;1.25;;;;;;;;;;5112482;28;20065;-85
2024/03/16 05:11:29;;;;;;;2.55;0.85;;;;;;;;;;5114035;28;20110;-86
2024/03/16 05:14:14;;;;;;;2.72;1.48;;;;;;;;;;5115788;28;20485;-85
2024/03/16 05:16:59;;;;;;;5.30;1.58;;;;;;;;;;5116628;28;20117;-86
2024/03/16 05:19:46;;;;;;;2.13;1.10;;;;;;;;;;5108170;28;20050;-85
2024/03/16 05:22:32;;;;;;;3.50;1.08;;;;;;;;;;5111810;28;20062;-85
2024/03/16 05:25:17;;;;;;;3.13;1.45;;;;;;;;;;5110869;28;20474;-85
2024/03/16 05:28:03;;;;;;;4.60;1.88;;;;;;;;;;5114150;28;20524;-86
2024/03/16 05:30:51;;;;;;;1.70;0.95;;;;;;;;;;5110151;28;20027;-85
2024/03/16 05:33:36;;;;;;;2.95;0.90;;;;;;;;;;5107803;28;20083;-86
2024/03/16 05:36:21;;;;;;;1.42;1.20;;;;;;;;;;5116371;27;20043;-85
2024/03/16 05:39:08;;;;;;;2.15;1.30;;;;;;;;;;5111832;27;20034;-84
2024/03/16 05:41:53;;;;;;;5.20;1.10;;;;;;;;;;5114874;27;20074;-84
2024/03/16 05:44:39;;;;;;;4.55;2.15;;;;;;;;;;5052042;27;20481;-86
2024/03/16 05:47:25;;;;;;;2.75;1.40;;;;;;;;;;5008910;27;20534;-85
2024/03/16 05:50:10;;;;;;;1.63;1.20;;;;;;;;;;5008130;27;20512;-86
2024/03/16 05:52:57;;;;;;;3.53;1.45;;;;;;;;;;5001997;27;20532;-85
2024/03/16 05:55:48;;;;;;;4.22;1.08;;;;;;;;;;4998198;28;20264;-86
2024/03/16 05:58:34;;;;;;;4.93;1.63;;;;;;;;;;5065802;27;20031;-85
2024/03/16 06:01:20;;;;;;;1.33;0.82;;;;;;;;;;5117674;27;20026;-87
2024/03/16 06:04:05;;;;;;;2.53;2.08;;;;;;;;;;5118662;27;20393;-86
2024/03/16 06:06:50;;;;;;;7.30;1.40;;;;;;;;;;5106048;27;20066;-88
2024/03/16 06:09:45;;;;;;;5.97;1.52;;;;;;;;;;5113897;27;20436;-87
2024/03/16 06:12:31;;;;;;;3.00;1.10;;;;;;;;;;5112114;27;20051;-86
2024/03/16 06:15:16;;;;;;;2.13;1.00;;;;;;;;;;5116196;27;20043;-86
2024/03/16 06:18:05;;;;;;;2.85;0.93;;;;;;;;;;5119172;27;20478;-85
2024/03/16 06:20:50;;;;;;;0.98;0.80;;;;;;;;;;5115666;27;20039;-86
2024/03/16 06:23:35;;;;;;;1.33;0.98;;;;;;;;;;5114449;27;20132;-84
2024/03/16 06:26:22;;;;;;;2.63;0.93;;;;;;;;;;5117794;27;20027;-85
2024/03/16 06:29:10;;;;;;;2.58;1.00;;;;;;;;;;5115562;27;20028;-86
2024/03/16 06:32:05;;;;;;;1.90;1.17;;;;;;;;;;5110704;27;20437;-86
2024/03/16 06:34:50;;;;;;;1.17;0.77;;;;;;;;;;5115794;27;20482;-87
2024/03/16 06:37:36;;;;;;;2.58;1.10;;;;;;;;;;5120335;27;20015;-87
2024/03/16 06:40:22;;;;;;;2.65;1.02;;;;;;;;;;5111025;27;20019;-88
2024/03/16 06:43:07;;;;;;;2.97;0.80;;;;;;;;;;5117643;27;20043;-85
2024/03/16 06:45:52;;;;;;;2.50;0.98;;;;;;;;;;5118929;27;20031;-86
2024/03/16 06:48:38;;;;;;;1.15;0.80;;;;;;;;;;5112119;27;20043;-86
2024/03/16 06:51:23;;;;;;;3.60;1.67;;;;;;;;;;5109981;27;20023;-87
2024/03/16 06:54:08;;;;;;;3.60;1.38;;;;;;;;;;5108952;27;20075;-86
2024/03/16 06:56:53;;;;;;;2.78;1.10;;;;;;;;;;5112619;27;20693;-85
2024/03/16 06:59:38;;;;;;;1.80;1.13;;;;;;;;;;5128965;27;20071;-85
2024/03/16 07:02:24;;;;;;;2.25;1.00;;;;;;;;;;5123032;27;20023;-86
2024/03/16 07:05:09;;;;;;;3.42;1.40;;;;;;;;;;5109882;27;20019;-88
2024/03/16 07:07:54;;;;;;;2.50;1.08;;;;;;;;;;5117544;27;20062;-87
2024/03/16 07:10:40;;;;;;;1.75;1.10;;;;;;;;;;5110505;27;20020;-87
2024/03/16 07:13:25;;;;;;;4.25;1.38;;;;;;;;;;5119831;27;20092;-87
2024/03/16 07:16:13;;;;;;;2.15;1.27;;;;;;;;;;5112078;27;20466;-86
2024/03/16 07:19:02;;;;;;;2.35;0.98;;;;;;;;;;5114093;27;20382;-87
2024/03/16 07:21:47;;;;;;;4.03;1.27;;;;;;;;;;5117915;27;20469;-89
2024/03/16 07:24:34;;;;;;;1.92;1.27;;;;;;;;;;5116684;27;20379;-88
2024/03/16 07:27:22;;;;;;;1.08;0.70;;;;;;;;;;5113714;27;20116;-89
2024/03/16 07:30:07;;;;;;;3.60;0.80;;;;;;;;;;5109440;27;20440;-88
2024/03/16 07:32:52;;;;;;;3.08;1.00;;;;;;;;;;5108098;28;20027;-89
2024/03/16 07:35:39;;;;;;;1.90;0.93;;;;;;;;;;5112329;27;20039;-87
2024/03/16 07:38:25;;;;;;;2.65;1.30;;;;;;;;;;5123580;27;20030;-86
2024/03/16 07:41:10;;;;;;;2.60;1.23;;;;;;;;;;5117693;27;20533;-87
2024/03/16 07:43:55;;;;;;;2.25;1.00;;;;;;;;;;5115016;27;20047;-87
2024/03/16 07:46:41;;;;;;;0.75;0.73;;;;;;;;;;5112222;27;20077;-82
2024/03/16 07:49:26;;;;;;;5.90;1.17;;;;;;;;;;5109814;27;20024;-84
2024/03/16 07:52:12;;;;;;;1.50;0.82;;;;;;;;;;5111453;27;20127;-87
2024/03/16 07:54:57;;;;;;;7.97;3.00;;;;;;;;;;5108748;27;20054;-86
2024/03/16 07:57:42;;;;;;;9.10;3.45;;;;;;;;;;5113890;27;20019;-86
2024/03/16 08:00:28;;;;;;;5.75;2.05;;;;;;;;;;5105951;28;20028;-86
2024/03/16 08:03:13;;;;;;;3.35;1.40;;;;;;;;;;5107271;27;20027;-86
2024/03/16 08:06:07;;;;;;;3.88;1.25;;;;;;;;;;5106841;28;20100;-87
2024/03/16 08:08:52;;;;;;;2.88;1.30;;;;;;;;;;5106674;28;20027;-87
2024/03/16 08:11:43;;;;;;;3.97;1.15;;;;;;;;;;5106703;28;20027;-86
2024/03/16 08:14:34;;;;;;;2.15;0.93;;;;;;;;;;5106465;27;20028;-86
2024/03/16 08:17:21;;;;;;;2.20;1.33;;;;;;;;;;5106307;28;20049;-87
2024/03/16 08:20:08;;;;;;;3.53;1.10;;;;;;;;;;5106879;28;20024;-86
2024/03/16 08:22:56;;;;;;;6.63;1.08;;;;;;;;;;5106717;27;20111;-85
2024/03/16 08:25:41;;;;;;;5.13;1.33;;;;;;;;;;5107235;28;20048;-88
2024/03/16 08:28:27;;;;;;;1.92;1.23;;;;;;;;;;5121108;27;20144;-85
2024/03/16 08:31:12;;;;;;;1.55;1.02;;;;;;;;;;5125915;27;20023;-87
2024/03/16 08:33:58;;;;;;;2.33;1.30;;;;;;;;;;5116922;27;20027;-87
2024/03/16 08:36:43;;;;;;;2.00;1.02;;;;;;;;;;5116989;27;20028;-91
2024/03/16 08:39:31;;;;;;;3.70;1.25;;;;;;;;;;5116173;27;20061;-91
2024/03/16 08:42:16;;;;;;;1.60;0.80;;;;;;;;;;5102959;27;20079;-91
2024/03/16 08:45:04;;;;;;;3.20;0.90;;;;;;;;;;5116545;27;20780;-92
2024/03/16 08:47:50;;;;;;;1.38;1.20;;;;;;;;;;5117223;27;20023;-93
2024/03/16 08:50:35;;;;;;;1.48;1.15;;;;;;;;;;5116118;27;20020;-91
2024/03/16 08:53:21;;;;;;;3.67;1.42;;;;;;;;;;5124728;28;20023;-91
2024/03/16 08:56:09;;;;;;;2.65;0.90;;;;;;;;;;5122808;27;20091;-93
2024/03/16 08:58:55;;;;;;;0.98;0.98;;;;;;;;;;5121078;28;20034;-90
2024/03/16 09:01:42;;;;;;;3.10;1.10;;;;;;;;;;5116649;28;20112;-91
2024/03/16 09:04:27;;;;;;;3.13;1.10;;;;;;;;;;5124105;28;20019;-93
2024/03/16 09:07:13;;;;;;;1.17;0.80;;;;;;;;;;5126151;27;20040;-90
2024/03/16 09:09:58;;;;;;;4.60;0.80;;;;;;;;;;5113470;27;20462;-92
2024/03/16 09:12:46;;;;;;;2.35;0.90;;;;;;;;;;5119405;27;20035;-81
2024/03/16 09:15:32;;;;;;;2.53;0.80;;;;;;;;;;5117672;27;20031;-83
2024/03/16 09:18:17;;;;;;;2.88;1.00;;;;;;;;;;5118682;27;20045;-80
2024/03/16 09:21:03;;;;;;;0.70;0.70;;;;;;;;;;5110063;27;20024;-79
2024/03/16 09:23:48;;;;;;;1.85;0.80;;;;;;;;;;5110595;27;20059;-79
2024/03/16 09:26:34;;;;;;;2.00;0.88;;;;;;;;;;5112370;27;20031;-79
2024/03/16 09:29:20;;;;;;;1.88;0.90;;;;;;;;;;5118643;27;20541;-78
2024/03/16 09:32:05;;;;;;;2.22;1.00;;;;;;;;;;5115041;27;20060;-81
2024/03/16 09:34:51;;;;;;;1.35;0.90;;;;;;;;;;5115664;27;20023;-82
2024/03/16 09:37:39;;;;;;;0.57;0.57;;;;;;;;;;5114583;27;20035;-84
2024/03/16 09:40:24;;;;;;;2.05;0.90;;;;;;;;;;5115827;27;20019;-84
2024/03/16 09:43:10;;;;;;;1.55;1.00;;;;;;;;;;5116613;27;20119;-84
2024/03/16 09:45:57;;;;;;;7.15;1.13;;;;;;;;;;5112368;27;20469;-83
2024/03/16 09:48:42;;;;;;;0.80;0.80;;;;;;;;;;5114410;27;20038;-83
2024/03/16 09:51:27;;;;;;;2.78;0.80;;;;;;;;;;5115794;27;20076;-85
2024/03/16 09:54:12;;;;;;;1.58;0.95;;;;;;;;;;5119053;27;20024;-85
2024/03/16 09:56:58;;;;;;;3.63;0.90;;;;;;;;;;5120206;27;20035;-83
2024/03/16 09:59:48;;;;;;;1.83;1.05;;;;;;;;;;5121547;27;20042;-84
2024/03/16 10:02:33;;;;;;;1.38;0.93;;;;;;;;;;5112296;27;20117;-88
2024/03/16 10:05:18;;;;;;;3.22;0.82;;;;;;;;;;5112825;27;20449;-82
2024/03/16 10:08:04;;;;;;;1.42;0.73;;;;;;;;;;5109463;27;20161;-82
2024/03/16 10:10:50;;;;;;;0.98;0.90;;;;;;;;;;5111779;27;20024;-85
2024/03/16 10:13:37;;;;;;;1.27;0.60;;;;;;;;;;5113850;27;20354;-85
2024/03/16 10:16:22;;;;;;;1.67;0.80;;;;;;;;;;5115314;27;20084;-84
2024/03/16 10:19:07;;;;;;;1.55;0.80;;;;;;;;;;5116186;27;20389;-83
2024/03/16 10:21:53;;;;;;;1.65;0.95;;;;;;;;;;5110194;27;20434;-83
2024/03/16 10:24:39;;;;;;;0.60;0.60;;;;;;;;;;5119366;27;20034;-80
2024/03/16 10:27:25;;;;;;;1.27;0.65;;;;;;;;;;5115463;27;20489;-81
2024/03/16 10:30:11;;;;;;;0.80;0.75;;;;;;;;;;5116434;27;20478;-82
2024/03/16 10:32:57;;;;;;;1.63;0.60;;;;;;;;;;5114310;27;20037;-83
2024/03/16 10:35:44;;;;;;;2.72;0.88;;;;;;;;;;5115948;27;20055;-79
2024/03/16 10:38:30;;;;;;;2.38;0.75;;;;;;;;;;5117933;27;20032;-81
2024/03/16 10:41:16;;;;;;;1.67;0.88;;;;;;;;;;5123935;27;20030;-87
2024/03/16 10:44:02;;;;;;;0.50;0.50;;;;;;;;;;5120303;27;20027;-82
2024/03/16 10:46:47;;;;;;;0.63;0.60;;;;;;;;;;5125098;27;20405;-86
2024/03/16 10:49:33;;;;;;;1.98;0.82;;;;;;;;;;5116265;27;20027;-84
2024/03/16 10:52:19;;;;;;;0.70;0.70;;;;;;;;;;5120305;27;20055;-85
2024/03/16 10:55:08;;;;;;;0.80;0.70;;;;;;;;;;5118103;27;20389;-85
2024/03/16 10:57:54;;;;;;;5.63;0.90;;;;;;;;;;5117733;27;20067;-81
2024/03/16 11:00:44;;;;;;;1.33;1.23;;;;;;;;;;5112314;27;20027;-80
2024/03/16 11:03:32;;;;;;;3.30;0.75;;;;;;;;;;5113302;27;20099;-81
2024/03/16 11:06:24;;;;;;;1.83;0.85;;;;;;;;;;5099963;28;20022;-81
2024/03/16 11:09:17;;;;;;;2.83;0.70;;;;;;;;;;5117326;27;20061;-84
2024/03/16 11:12:03;;;;;;;0.60;0.60;;;;;;;;;;5109078;27;20019;-86
2024/03/16 11:15:09;;;;;;;1.30;0.63;;;;;;;;;;5111058;27;20024;-86
2024/03/16 11:17:54;;;;;;;0.65;0.60;;;;;;;;;;5116158;27;20034;-85
2024/03/16 11:20:39;;;;;;;1.55;0.73;;;;;;;;;;5119408;27;20057;-85
2024/03/16 11:23:27;;;;;;;2.83;0.60;;;;;;;;;;5116634;27;20058;-88
2024/03/16 11:26:27;;;;;;;1.08;0.70;;;;;;;;;;5122314;27;20031;-91
2024/03/16 11:29:16;;;;;;;1.10;0.70;;;;;;;;;;5121079;27;20019;-81
2024/03/16 11:32:09;;;;;;;1.17;0.70;;;;;;;;;;5119776;27;20054;-80
2024/03/16 11:34:55;;;;;;;0.80;0.80;;;;;;;;;;5122999;27;20015;-83
2024/03/16 11:37:43;;;;;;;1.00;0.90;;;;;;;;;;5114199;27;20023;-84
2024/03/16 11:40:28;;;;;;;0.90;0.80;;;;;;;;;;5128983;27;20019;-79
2024/03/16 11:43:14;;;;;;;1.38;0.90;;;;;;;;;;5114265;27;20462;-78
2024/03/16 11:45:59;;;;;;;0.98;0.88;;;;;;;;;;5108289;27;20102;-85
2024/03/16 11:48:45;;;;;;;1.92;0.73;;;;;;;;;;5108704;27;20031;-76
2024/03/16 11:51:31;;;;;;;1.17;0.70;;;;;;;;;;5120321;27;20438;-84
2024/03/16 11:54:16;;;;;;;0.80;0.80;;;;;;;;;;5121342;27;20027;-80
2024/03/16 11:57:11;;;;;;;1.38;0.80;;;;;;;;;;5113885;27;20132;-84
2024/03/16 11:59:56;;;;;;;1.58;0.60;;;;;;;;;;5116116;27;20042;-84
2024/03/16 12:02:42;;;;;;;0.90;0.60;;;;;;;;;;5122816;27;20473;-83
2024/03/16 12:05:28;;;;;;;2.35;0.98;;;;;;;;;;5116596;27;20051;-81
2024/03/16 12:08:15;;;;;;;2.38;1.08;;;;;;;;;;5109813;27;20030;-82
2024/03/16 12:11:00;;;;;;;0.90;0.60;;;;;;;;;;5108870;27;20019;-83
2024/03/16 12:13:46;;;;;;;2.08;0.90;;;;;;;;;;5113156;27;20034;-83
2024/03/16 12:16:31;;;;;;;1.08;0.70;;;;;;;;;;5136652;27;20024;-83
2024/03/16 12:19:17;;;;;;;1.48;0.90;;;;;;;;;;5140100;27;20069;-83
2024/03/16 12:22:02;;;;;;;0.80;0.80;;;;;;;;;;5139609;27;20041;-81
2024/03/16 12:24:50;;;;;;;0.70;0.70;;;;;;;;;;5142056;27;20088;-82
2024/03/16 12:27:41;;;;;;;2.53;0.70;;;;;;;;;;5138584;27;20023;-82
2024/03/16 12:30:33;;;;;;;0.70;0.70;;;;;;;;;;5127093;27;20034;-83
2024/03/16 12:33:19;;;;;;;1.33;0.90;;;;;;;;;;5108955;27;20536;-83
2024/03/16 12:36:04;;;;;;;4.18;1.33;;;;;;;;;;5112090;27;20108;-83
2024/03/16 12:38:49;;;;;;;3.67;1.48;;;;;;;;;;5099777;28;20053;-82
2024/03/16 12:41:39;;;;;;;3.63;1.08;;;;;;;;;;5118130;27;20035;-82
2024/03/16 12:44:24;;;;;;;;;;;;;;;;;;5099538;28;20153;-83
2024/03/16 12:47:10;;;;;;;1.23;0.70;;;;;;;;;;5114902;27;19911;-83
2024/03/16 12:49:56;;;;;;;1.08;0.75;;;;;;;;;;5107131;27;20501;-82
2024/03/16 12:52:41;;;;;;;1.05;0.95;;;;;;;;;;5097750;28;20500;-81
2024/03/16 12:55:26;;;;;;;1.40;0.70;;;;;;;;;;5115217;27;20038;-82
2024/03/16 12:58:12;;;;;;;2.05;0.80;;;;;;;;;;5112865;27;20023;-83
2024/03/16 13:00:57;;;;;;;1.30;0.90;;;;;;;;;;5116280;28;20105;-82
2024/03/16 13:03:42;;;;;;;2.90;0.70;;;;;;;;;;5119561;28;20030;-82
2024/03/16 13:06:27;;;;;;;2.25;1.08;;;;;;;;;;5117420;28;20064;-82
2024/03/16 13:09:17;;;;;;;0.98;0.80;;;;;;;;;;5110864;28;20042;-82
2024/03/16 13:12:08;;;;;;;0.77;0.77;;;;;;;;;;5119250;28;20182;-85
2024/03/16 13:14:53;;;;;;;1.77;1.00;;;;;;;;;;5111806;28;20159;-85
2024/03/16 13:17:39;;;;;;;1.45;0.90;;;;;;;;;;5116109;28;20031;-83
2024/03/16 13:20:24;;;;;;;1.30;1.00;;;;;;;;;;5112773;28;20031;-82
2024/03/16 13:23:09;;;;;;;1.48;1.27;;;;;;;;;;5097303;28;20106;-81
2024/03/16 13:25:54;;;;;;;1.70;0.93;;;;;;;;;;5112418;28;20537;-82
2024/03/16 13:28:40;;;;;;;1.38;1.13;;;;;;;;;;5115926;28;20110;-82
2024/03/16 13:31:25;;;;;;;1.02;0.93;;;;;;;;;;5114946;28;20034;-83
2024/03/16 13:34:11;;;;;;;1.73;1.00;;;;;;;;;;5115087;28;20103;-82
2024/03/16 13:36:57;;;;;;;1.98;1.10;;;;;;;;;;5106512;28;20021;-82
2024/03/16 13:39:42;;;;;;;4.03;1.02;;;;;;;;;;5108164;28;20031;-81
2024/03/16 13:42:27;;;;;;;3.38;1.30;;;;;;;;;;5109409;28;20046;-83
2024/03/16 13:45:14;;;;;;;1.80;1.30;;;;;;;;;;5110706;28;20027;-82
2024/03/16 13:47:59;;;;;;;1.85;0.82;;;;;;;;;;5110402;28;20030;-82
2024/03/16 13:50:47;;;;;;;1.58;1.25;;;;;;;;;;5111100;28;20548;-83
2024/03/16 13:53:32;;;;;;;2.20;1.20;;;;;;;;;;5118663;28;20079;-83
2024/03/16 13:56:17;;;;;;;2.78;1.35;;;;;;;;;;5108262;28;20443;-82
2024/03/16 13:59:02;;;;;;;1.23;1.10;;;;;;;;;;5111189;27;20036;-84
2024/03/16 14:01:49;;;;;;;1.23;1.00;;;;;;;;;;5118715;27;20023;-83
2024/03/16 14:04:34;;;;;;;1.52;0.95;;;;;;;;;;5117673;27;20027;-83
2024/03/16 14:07:19;;;;;;;1.58;0.80;;;;;;;;;;5120427;27;20055;-83
2024/03/16 14:10:06;;;;;;;1.52;0.98;;;;;;;;;;5110100;27;20026;-83
2024/03/16 14:12:56;;;;;;;0.80;0.80;;;;;;;;;;5118063;27;20027;-83
2024/03/16 14:15:41;;;;;;;1.73;0.95;;;;;;;;;;5116402;27;20035;-84
2024/03/16 14:18:26;;;;;;;1.58;1.00;;;;;;;;;;5111418;27;20430;-84
2024/03/16 14:21:12;;;;;;;1.00;0.90;;;;;;;;;;5112994;27;20030;-82
2024/03/16 14:23:57;;;;;;;0.98;0.80;;;;;;;;;;5125091;27;20059;-83
2024/03/16 14:26:46;;;;;;;0.80;0.80;;;;;;;;;;5123903;27;20028;-83
2024/03/16 14:29:31;;;;;;;1.63;0.77;;;;;;;;;;5114766;27;20099;-84
2024/03/16 14:32:16;;;;;;;1.13;0.80;;;;;;;;;;5119753;27;20031;-84
2024/03/16 14:35:03;;;;;;;0.85;0.75;;;;;;;;;;5115994;27;20018;-84
2024/03/16 14:37:49;;;;;;;1.00;0.88;;;;;;;;;;5110695;27;20047;-84
2024/03/16 14:40:34;;;;;;;0.80;0.60;;;;;;;;;;5115002;27;20028;-84
2024/03/16 14:43:20;;;;;;;1.10;1.00;;;;;;;;;;5105655;27;20144;-84
2024/03/16 14:46:05;;;;;;;0.80;0.80;;;;;;;;;;5111855;27;20035;-84
2024/03/16 14:48:50;;;;;;;0.85;0.80;;;;;;;;;;5114936;27;20489;-85
2024/03/16 14:51:35;;;;;;;1.05;0.80;;;;;;;;;;5112858;27;20437;-84
2024/03/16 14:54:20;;;;;;;1.13;0.80;;;;;;;;;;5110954;27;20607;-84
2024/03/16 14:57:06;;;;;;;0.70;0.70;;;;;;;;;;5111604;27;20035;-83
2024/03/16 14:59:51;;;;;;;0.70;0.70;;;;;;;;;;5109660;27;20035;-84
2024/03/16 15:02:36;;;;;;;0.80;0.80;;;;;;;;;;5114433;27;20505;-83
2024/03/16 15:05:22;;;;;;;1.10;0.70;;;;;;;;;;5118709;27;20568;-84
2024/03/16 15:08:08;;;;;;;2.80;0.90;;;;;;;;;;5117805;27;20424;-84
2024/03/16 15:10:53;;;;;;;1.90;1.20;;;;;;;;;;5115208;27;20023;-86
2024/03/16 15:13:39;;;;;;;1.08;0.80;;;;;;;;;;5118115;27;20130;-86
2024/03/16 15:16:24;;;;;;;1.10;0.82;;;;;;;;;;5129737;27;20508;-86
2024/03/16 15:19:10;;;;;;;0.70;0.70;;;;;;;;;;5118624;27;20385;-85
2024/03/16 15:21:55;;;;;;;0.60;0.60;;;;;;;;;;5124003;27;20023;-84
2024/03/16 15:24:43;;;;;;;0.77;0.77;;;;;;;;;;5115885;27;20034;-82
2024/03/16 15:27:30;;;;;;;0.70;0.70;;;;;;;;;;5117923;27;20058;-84
2024/03/16 15:30:16;;;;;;;0.68;0.68;;;;;;;;;;5112846;27;20043;-82
2024/03/16 15:33:02;;;;;;;1.45;0.63;;;;;;;;;;5111176;27;20031;-83
2024/03/16 15:35:50;;;;;;;1.33;0.95;;;;;;;;;;5118966;27;20106;-87
2024/03/16 15:38:35;;;;;;;0.60;0.60;;;;;;;;;;5111955;27;20043;-85
2024/03/16 15:41:20;;;;;;;0.60;0.60;;;;;;;;;;5112790;27;20034;-83
2024/03/16 15:44:06;;;;;;;1.05;0.93;;;;;;;;;;5106991;28;20083;-80
2024/03/16 15:46:51;;;;;;;0.60;0.60;;;;;;;;;;5115003;27;20438;-83
2024/03/16 15:49:37;;;;;;;1.15;0.80;;;;;;;;;;5121422;27;20054;-82
2024/03/16 15:52:22;;;;;;;2.30;0.90;;;;;;;;;;5116222;27;20099;-83
2024/03/16 15:55:07;;;;;;;1.00;0.63;;;;;;;;;;5120885;27;20023;-84
2024/03/16 15:57:52;;;;;;;0.90;0.80;;;;;;;;;;5117337;27;20019;-84
2024/03/16 16:00:40;;;;;;;0.98;0.70;;;;;;;;;;5110151;27;20027;-83
2024/03/16 16:03:26;;;;;;;0.80;0.80;;;;;;;;;;5107219;27;20490;-83
2024/03/16 16:06:11;;;;;;;2.10;1.10;;;;;;;;;;5108767;27;20081;-84
2024/03/16 16:08:56;;;;;;;1.13;0.85;;;;;;;;;;5124499;27;20474;-84
2024/03/16 16:11:43;;;;;;;1.08;0.98;;;;;;;;;;5114515;27;20113;-86
2024/03/16 16:14:29;;;;;;;2.33;0.73;;;;;;;;;;5102760;28;20346;-82
2024/03/16 16:17:14;;;;;;;1.70;0.90;;;;;;;;;;5121741;27;20031;-85
2024/03/16 16:19:59;;;;;;;0.90;0.80;;;;;;;;;;5110446;27;20505;-86
2024/03/16 16:22:46;;;;;;;1.45;0.90;;;;;;;;;;5121593;27;20027;-84
2024/03/16 16:25:31;;;;;;;0.70;0.70;;;;;;;;;;5099512;27;20122;-85
2024/03/16 16:28:16;;;;;;;0.82;0.82;;;;;;;;;;5123606;27;20038;-85
2024/03/16 16:31:02;;;;;;;1.33;0.85;;;;;;;;;;5126582;27;20023;-84
2024/03/16 16:33:47;;;;;;;1.40;1.00;;;;;;;;;;5111975;27;20019;-85
2024/03/16 16:36:33;;;;;;;0.75;0.70;;;;;;;;;;5113680;27;20055;-84
2024/03/16 16:39:18;;;;;;;1.67;0.80;;;;;;;;;;5122878;27;20027;-85